Time;durP1;ratioP1;P1;durP2;ratioP2;P2;SDS_P1;SDS_P2;PMS_P1;PMS_P2;Temp;Humidity;BMP_temperature;BMP_pressure;BME280_temperature;BME280_humidity;BME280_pressure;Samples;Min_cycle;Max_cycle;Signal;HPM_P1;HPM_P2
2023/08/02 00:00:07;;;;;;;1.67;1.17;;;17.60;78.20;;;;;;4936366;28;20035;-62
2023/08/02 00:02:33;;;;;;;1.90;1.25;;;17.60;78.20;;;;;;4936722;28;20043;-62
2023/08/02 00:04:58;;;;;;;2.13;1.52;;;17.60;78.20;;;;;;4938743;28;20577;-63
2023/08/02 00:07:24;;;;;;;2.42;1.40;;;17.60;78.10;;;;;;4940250;28;20039;-62
2023/08/02 00:09:49;;;;;;;2.00;1.38;;;17.60;78.10;;;;;;4939985;28;20401;-63
2023/08/02 00:12:15;;;;;;;3.75;1.40;;;17.60;78.00;;;;;;4942738;28;20043;-62
2023/08/02 00:14:41;;;;;;;2.92;1.30;;;17.70;78.00;;;;;;4941068;28;20047;-62
2023/08/02 00:17:06;;;;;;;1.85;1.15;;;17.60;78.80;;;;;;4940068;28;20079;-60
2023/08/02 00:19:32;;;;;;;2.42;1.70;;;17.60;77.90;;;;;;4941024;28;20039;-61
2023/08/02 00:21:58;;;;;;;1.70;1.52;;;17.60;77.90;;;;;;4939044;28;20036;-62
2023/08/02 00:24:23;;;;;;;2.40;1.42;;;17.60;78.00;;;;;;4940080;28;20058;-62
2023/08/02 00:26:49;;;;;;;1.65;1.13;;;17.60;78.20;;;;;;4940433;28;20035;-62
2023/08/02 00:29:16;;;;;;;2.35;1.60;;;17.60;78.00;;;;;;4938772;28;20036;-60
2023/08/02 00:31:41;;;;;;;3.03;1.50;;;17.50;78.80;;;;;;4940662;28;20099;-61
2023/08/02 00:34:07;;;;;;;3.08;1.75;;;17.50;78.20;;;;;;4939622;28;20051;-62
2023/08/02 00:36:32;;;;;;;2.70;1.42;;;17.40;78.20;;;;;;4939439;28;20061;-63
2023/08/02 00:38:58;;;;;;;1.70;1.30;;;17.40;78.20;;;;;;4939447;28;20629;-62
2023/08/02 00:41:23;;;;;;;1.63;1.48;;;17.30;78.20;;;;;;4939483;29;20321;-63
2023/08/02 00:43:50;;;;;;;2.85;1.48;;;17.40;78.30;;;;;;4940596;28;20134;-62
2023/08/02 00:46:18;;;;;;;2.88;1.52;;;17.30;78.40;;;;;;4939256;28;20083;-62
2023/08/02 00:48:46;;;;;;;3.17;1.50;;;17.30;78.50;;;;;;4939778;28;20592;-62
2023/08/02 00:51:13;;;;;;;1.60;1.50;;;17.20;78.40;;;;;;4940980;28;20417;-62
2023/08/02 00:53:39;;;;;;;2.20;1.40;;;17.30;78.60;;;;;;4939799;28;20039;-62
2023/08/02 00:56:05;;;;;;;5.18;1.60;;;17.20;78.70;;;;;;4940265;28;20071;-62
2023/08/02 00:58:32;;;;;;;2.47;1.50;;;17.20;78.70;;;;;;4939266;28;20031;-61
2023/08/02 01:01:07;;;;;;;2.15;1.58;;;17.20;78.80;;;;;;4941152;28;20469;-61
2023/08/02 01:03:40;;;;;;;3.88;1.75;;;17.20;78.90;;;;;;4941482;28;20074;-61
2023/08/02 01:06:28;;;;;;;2.10;1.88;;;17.20;78.90;;;;;;4941539;28;20122;-62
2023/08/02 01:09:00;;;;;;;3.38;1.52;;;17.10;79.30;;;;;;4939418;28;20039;-61
2023/08/02 01:11:48;;;;;;;3.50;1.55;;;17.10;79.20;;;;;;4941879;28;20046;-61
2023/08/02 01:14:22;;;;;;;3.53;1.40;;;17.00;79.30;;;;;;4940102;28;20527;-61
2023/08/02 01:16:49;;;;;;;1.92;1.42;;;17.00;79.40;;;;;;4938896;28;20045;-61
2023/08/02 01:19:21;;;;;;;3.67;1.70;;;16.90;79.30;;;;;;4941792;28;20036;-61
2023/08/02 01:21:46;;;;;;;1.80;1.20;;;16.90;79.60;;;;;;4941804;28;20035;-62
2023/08/02 01:24:12;;;;;;;3.30;1.70;;;16.90;79.50;;;;;;4941111;29;20047;-62
2023/08/02 01:26:42;;;;;;;2.13;1.40;;;16.90;79.60;;;;;;4940532;28;20046;-61
2023/08/02 01:29:11;;;;;;;2.58;1.80;;;16.80;79.90;;;;;;4939503;28;20118;-62
2023/08/02 01:31:39;;;;;;;2.92;1.65;;;16.80;79.90;;;;;;4919620;29;20039;-62
2023/08/02 01:34:06;;;;;;;2.72;1.83;;;16.70;80.00;;;;;;4940914;28;21318;-62
2023/08/02 01:36:32;;;;;;;3.00;1.70;;;16.80;80.10;;;;;;4939650;28;20035;-62
2023/08/02 01:38:58;;;;;;;2.67;1.83;;;16.80;80.20;;;;;;4938801;28;20070;-63
2023/08/02 01:41:24;;;;;;;2.20;1.65;;;16.70;80.30;;;;;;4939109;28;20055;-61
2023/08/02 01:43:49;;;;;;;2.70;1.58;;;16.70;81.10;;;;;;4941193;28;20043;-61
2023/08/02 01:46:15;;;;;;;1.83;1.63;;;16.70;80.10;;;;;;4938322;28;20460;-62
2023/08/02 01:48:40;;;;;;;2.17;1.73;;;16.60;80.20;;;;;;4937252;28;20039;-61
2023/08/02 01:51:06;;;;;;;1.80;1.65;;;16.60;80.30;;;;;;4939216;28;20042;-61
2023/08/02 01:53:32;;;;;;;3.33;2.30;;;16.60;80.40;;;;;;4937604;28;20078;-60
2023/08/02 01:55:58;;;;;;;3.13;2.05;;;16.60;80.60;;;;;;4937489;28;20562;-62
2023/08/02 01:58:23;;;;;;;2.70;2.30;;;16.50;80.80;;;;;;4938111;28;20407;-62
2023/08/02 02:00:49;;;;;;;4.65;2.33;;;16.50;80.80;;;;;;4937700;28;20035;-62
2023/08/02 02:03:14;;;;;;;2.88;2.05;;;16.50;81.00;;;;;;4939590;29;20046;-62
2023/08/02 02:05:40;;;;;;;2.15;1.95;;;16.50;81.00;;;;;;4938982;28;20031;-61
2023/08/02 02:08:05;;;;;;;5.03;2.05;;;16.50;81.10;;;;;;4938674;28;20123;-60
2023/08/02 02:10:31;;;;;;;4.63;2.30;;;16.50;81.10;;;;;;4939033;28;20039;-61
2023/08/02 02:12:57;;;;;;;2.45;2.25;;;16.40;81.10;;;;;;4939590;28;20034;-62
2023/08/02 02:15:22;;;;;;;3.08;2.38;;;16.40;81.10;;;;;;4937895;28;20043;-61
2023/08/02 02:17:48;;;;;;;3.60;2.65;;;16.40;81.20;;;;;;4939736;28;20175;-61
2023/08/02 02:20:14;;;;;;;4.03;2.78;;;16.40;81.30;;;;;;4938813;28;20604;-62
2023/08/02 02:22:39;;;;;;;3.35;2.65;;;16.40;81.30;;;;;;4938349;28;20118;-60
2023/08/02 02:25:05;;;;;;;4.20;3.03;;;16.40;81.30;;;;;;4938016;28;20036;-60
2023/08/02 02:27:31;;;;;;;3.67;2.90;;;16.40;81.30;;;;;;4936593;28;20047;-62
2023/08/02 02:29:56;;;;;;;3.55;2.85;;;16.40;81.30;;;;;;4936657;28;20141;-61
2023/08/02 02:32:22;;;;;;;4.32;3.40;;;16.40;81.50;;;;;;4937909;29;20499;-62
2023/08/02 02:34:47;;;;;;;5.30;3.28;;;16.40;81.40;;;;;;4936540;28;20438;-62
2023/08/02 02:37:13;;;;;;;6.35;3.67;;;16.30;81.40;;;;;;4938508;28;20043;-60
2023/08/02 02:39:38;;;;;;;4.13;3.22;;;16.30;81.50;;;;;;4938657;29;20093;-62
2023/08/02 02:42:04;;;;;;;3.47;3.10;;;16.30;81.60;;;;;;4939651;28;20324;-60
2023/08/02 02:44:41;;;;;;;5.78;3.97;;;16.20;81.70;;;;;;4938074;28;20130;-61
2023/08/02 02:47:07;;;;;;;5.00;3.40;;;16.20;82.00;;;;;;4938690;28;20089;-59
2023/08/02 02:49:32;;;;;;;5.68;3.90;;;16.20;81.90;;;;;;4937597;28;20040;-63
2023/08/02 02:51:58;;;;;;;4.30;3.78;;;16.20;82.00;;;;;;4936429;29;20092;-62
2023/08/02 02:54:23;;;;;;;4.68;3.80;;;16.20;82.10;;;;;;4938464;28;20035;-59
2023/08/02 02:56:49;;;;;;;4.22;3.72;;;16.20;82.20;;;;;;4936027;28;20032;-61
2023/08/02 02:59:14;;;;;;;5.80;3.90;;;16.20;82.10;;;;;;4939759;28;20440;-60
2023/08/02 03:01:40;;;;;;;5.07;4.13;;;16.20;82.10;;;;;;4936303;28;20031;-61
2023/08/02 03:04:06;;;;;;;4.72;3.65;;;16.20;82.20;;;;;;4936986;28;20039;-61
2023/08/02 03:06:31;;;;;;;5.82;3.78;;;16.20;82.30;;;;;;4936826;28;20114;-61
2023/08/02 03:08:57;;;;;;;5.35;3.95;;;16.20;82.40;;;;;;4937928;28;20140;-62
2023/08/02 03:11:23;;;;;;;6.78;3.97;;;16.20;82.40;;;;;;4939867;28;20393;-61
2023/08/02 03:13:48;;;;;;;6.93;4.10;;;16.20;82.40;;;;;;4938283;28;20095;-60
2023/08/02 03:16:14;;;;;;;5.10;4.32;;;16.20;82.40;;;;;;4939015;28;20035;-62
2023/08/02 03:18:39;;;;;;;5.32;4.03;;;16.30;82.40;;;;;;4939526;28;20515;-62
2023/08/02 03:21:05;;;;;;;6.00;4.47;;;16.30;82.10;;;;;;4939826;28;20028;-61
2023/08/02 03:23:34;;;;;;;6.05;4.50;;;16.30;82.00;;;;;;4939472;29;20055;-61
2023/08/02 03:25:59;;;;;;;6.72;4.10;;;16.20;82.20;;;;;;4939597;28;20256;-63
2023/08/02 03:28:25;;;;;;;7.13;4.50;;;16.20;82.30;;;;;;4937338;28;20043;-60
2023/08/02 03:30:53;;;;;;;5.72;4.50;;;16.30;82.50;;;;;;4936795;28;20127;-62
2023/08/02 03:33:18;;;;;;;5.80;4.63;;;16.30;82.60;;;;;;4935940;28;20631;-61
2023/08/02 03:35:44;;;;;;;4.97;4.50;;;16.30;82.60;;;;;;4936460;28;20024;-60
2023/08/02 03:38:09;;;;;;;7.05;4.50;;;16.30;82.70;;;;;;4936307;28;20039;-61
2023/08/02 03:40:35;;;;;;;6.80;4.15;;;16.30;82.70;;;;;;4937773;28;20040;-61
2023/08/02 03:43:01;;;;;;;9.15;5.03;;;16.30;82.70;;;;;;4940595;28;20044;-61
2023/08/02 03:45:26;;;;;;;6.18;4.75;;;16.40;82.70;;;;;;4939617;28;20027;-62
2023/08/02 03:47:52;;;;;;;6.40;4.45;;;16.40;82.70;;;;;;4940225;28;20625;-61
2023/08/02 03:50:18;;;;;;;7.65;4.70;;;16.40;82.70;;;;;;4940043;28;20397;-62
2023/08/02 03:52:43;;;;;;;6.15;4.57;;;16.50;82.90;;;;;;4937940;28;20043;-61
2023/08/02 03:55:09;;;;;;;6.57;5.18;;;16.50;82.90;;;;;;4940962;28;20047;-61
2023/08/02 03:57:34;;;;;;;9.18;5.22;;;16.50;82.70;;;;;;4938013;28;20039;-61
2023/08/02 04:00:00;;;;;;;5.72;4.60;;;16.60;82.80;;;;;;4941631;28;20047;-60
2023/08/02 04:02:25;;;;;;;7.90;4.90;;;16.60;82.80;;;;;;4941056;28;20054;-60
2023/08/02 04:04:51;;;;;;;7.82;4.90;;;16.60;82.80;;;;;;4936146;28;20121;-61
2023/08/02 04:07:17;;;;;;;7.18;4.60;;;16.70;83.60;;;;;;4939605;28;20035;-60
2023/08/02 04:09:42;;;;;;;6.25;4.63;;;16.70;82.80;;;;;;4938507;28;20431;-59
2023/08/02 04:12:08;;;;;;;5.05;4.55;;;16.70;82.90;;;;;;4940982;28;20043;-59
2023/08/02 04:14:34;;;;;;;10.90;4.82;;;16.80;83.00;;;;;;4938229;28;20715;-61
2023/08/02 04:16:59;;;;;;;9.25;4.90;;;16.80;82.90;;;;;;4939163;28;20326;-61
2023/08/02 04:19:25;;;;;;;10.80;5.32;;;16.90;82.90;;;;;;4940209;28;20503;-60
2023/08/02 04:21:51;;;;;;;8.43;4.90;;;16.90;82.90;;;;;;4943199;28;20391;-60
2023/08/02 04:24:17;;;;;;;6.90;4.90;;;16.90;82.90;;;;;;4942649;28;20153;-61
2023/08/02 04:26:42;;;;;;;10.90;6.32;;;16.90;82.90;;;;;;4937568;28;20051;-62
2023/08/02 04:29:09;;;;;;;13.15;6.63;;;17.00;82.90;;;;;;4923361;28;20395;-59
2023/08/02 04:31:34;;;;;;;11.07;6.20;;;17.00;82.70;;;;;;4938662;28;20134;-62
2023/08/02 04:34:00;;;;;;;9.80;6.13;;;17.00;82.70;;;;;;4939981;28;20032;-61
2023/08/02 04:36:25;;;;;;;9.70;6.25;;;17.00;82.50;;;;;;4937843;28;20036;-61
2023/08/02 04:38:53;;;;;;;14.35;6.22;;;17.00;82.40;;;;;;4937360;28;20790;-61
2023/08/02 04:41:18;;;;;;;14.15;5.65;;;17.00;82.60;;;;;;4941070;28;20401;-61
2023/08/02 04:43:46;;;;;;;10.55;6.10;;;17.00;82.80;;;;;;4941920;28;20048;-62
2023/08/02 04:46:12;;;;;;;15.00;6.03;;;17.00;83.20;;;;;;4942664;28;20102;-60
2023/08/02 04:48:37;;;;;;;16.00;6.20;;;17.00;83.30;;;;;;4940620;28;20039;-60
2023/08/02 04:51:10;;;;;;;11.20;5.80;;;17.00;83.50;;;;;;4940592;28;20050;-61
2023/08/02 04:53:36;;;;;;;11.25;5.72;;;17.00;84.00;;;;;;4941339;28;20063;-61
2023/08/02 04:56:02;;;;;;;9.43;6.22;;;17.00;84.00;;;;;;4940926;28;20625;-60
2023/08/02 04:58:27;;;;;;;9.05;5.78;;;17.10;84.10;;;;;;4940748;28;20115;-61
2023/08/02 05:00:53;;;;;;;10.70;5.82;;;17.00;84.20;;;;;;4941846;28;20038;-59
2023/08/02 05:03:19;;;;;;;11.98;6.00;;;17.00;84.40;;;;;;4941057;28;20039;-61
2023/08/02 05:05:44;;;;;;;7.32;5.43;;;17.00;84.50;;;;;;4941719;28;20070;-58
2023/08/02 05:08:10;;;;;;;7.63;5.35;;;17.00;84.80;;;;;;4940253;29;20082;-60
2023/08/02 05:10:38;;;;;;;7.80;5.38;;;17.10;85.00;;;;;;4942714;28;20031;-59
2023/08/02 05:13:05;;;;;;;7.25;5.47;;;17.10;85.20;;;;;;4940488;28;20042;-60
2023/08/02 05:15:40;;;;;;;8.98;5.20;;;17.10;85.20;;;;;;4939266;28;20043;-60
2023/08/02 05:18:05;;;;;;;6.38;5.25;;;17.10;85.70;;;;;;4941997;28;20038;-59
2023/08/02 05:20:32;;;;;;;9.40;5.03;;;17.10;85.20;;;;;;4941474;28;20031;-57
2023/08/02 05:23:01;;;;;;;6.28;4.80;;;17.10;85.30;;;;;;4941855;29;20080;-60
2023/08/02 05:25:31;;;;;;;5.68;4.35;;;17.20;85.40;;;;;;4941072;28;20044;-58
2023/08/02 05:27:56;;;;;;;4.85;4.13;;;17.20;85.30;;;;;;4940582;29;20027;-58
2023/08/02 05:30:22;;;;;;;5.32;4.32;;;17.20;85.30;;;;;;4942303;28;20101;-58
2023/08/02 05:32:48;;;;;;;6.18;4.38;;;17.20;85.50;;;;;;4939962;28;20039;-58
2023/08/02 05:35:14;;;;;;;7.72;4.32;;;17.30;85.60;;;;;;4940143;28;20050;-58
2023/08/02 05:37:40;;;;;;;6.78;4.65;;;17.30;85.60;;;;;;4940933;28;20031;-59
2023/08/02 05:40:06;;;;;;;7.53;4.70;;;17.30;85.70;;;;;;4940012;28;20024;-59
2023/08/02 05:42:31;;;;;;;8.95;5.70;;;17.30;86.50;;;;;;4941120;28;20407;-58
2023/08/02 05:44:57;;;;;;;9.02;4.93;;;17.40;85.80;;;;;;4940338;28;20039;-59
2023/08/02 05:47:23;;;;;;;11.85;5.03;;;17.40;85.90;;;;;;4939341;28;20035;-61
2023/08/02 05:49:48;;;;;;;12.38;5.20;;;17.40;85.90;;;;;;4939721;28;20499;-59
2023/08/02 05:52:14;;;;;;;13.82;5.90;;;17.40;85.90;;;;;;4939931;28;20147;-59
2023/08/02 05:54:40;;;;;;;16.70;5.15;;;17.50;85.90;;;;;;4939573;28;20624;-59
2023/08/02 05:57:07;;;;;;;11.05;5.20;;;17.50;85.70;;;;;;4940222;28;20069;-59
2023/08/02 05:59:33;;;;;;;13.98;4.47;;;17.50;85.70;;;;;;4939390;28;20059;-60
2023/08/02 06:01:59;;;;;;;19.83;4.60;;;17.50;85.50;;;;;;4940241;28;20046;-60
2023/08/02 06:04:25;;;;;;;17.00;5.18;;;17.50;85.50;;;;;;4939922;28;20039;-59
2023/08/02 06:06:51;;;;;;;10.25;4.18;;;17.50;85.50;;;;;;4939831;28;20047;-60
2023/08/02 06:09:16;;;;;;;8.30;4.57;;;17.50;85.50;;;;;;4940006;28;20052;-60
2023/08/02 06:11:42;;;;;;;8.68;4.35;;;17.50;85.60;;;;;;4942412;28;20114;-60
2023/08/02 06:14:08;;;;;;;11.35;4.55;;;17.60;85.90;;;;;;4939546;28;20060;-60
2023/08/02 06:16:34;;;;;;;7.97;4.60;;;17.60;85.70;;;;;;4938025;28;20455;-60
2023/08/02 06:19:00;;;;;;;8.80;4.35;;;17.60;85.80;;;;;;4939617;29;20027;-60
2023/08/02 06:21:25;;;;;;;7.72;3.80;;;17.60;85.90;;;;;;4939384;28;20090;-61
2023/08/02 06:23:51;;;;;;;4.53;3.65;;;17.50;86.10;;;;;;4940943;28;20115;-61
2023/08/02 06:26:17;;;;;;;7.70;4.10;;;17.50;86.20;;;;;;4940372;28;20031;-62
2023/08/02 06:28:43;;;;;;;5.10;3.47;;;17.50;86.30;;;;;;4939706;28;20645;-59
2023/08/02 06:31:09;;;;;;;5.20;3.70;;;17.50;86.30;;;;;;4940151;28;20051;-61
2023/08/02 06:33:34;;;;;;;4.75;3.20;;;17.50;86.20;;;;;;4939409;28;20035;-60
2023/08/02 06:36:00;;;;;;;4.03;3.05;;;17.40;86.30;;;;;;4939937;28;20154;-60
2023/08/02 06:38:25;;;;;;;5.10;3.25;;;17.40;86.70;;;;;;4939466;28;20044;-60
2023/08/02 06:40:51;;;;;;;3.97;2.90;;;17.40;86.70;;;;;;4940033;28;20399;-59
2023/08/02 06:43:16;;;;;;;3.90;2.90;;;17.40;87.10;;;;;;4939904;29;20027;-61
2023/08/02 06:45:46;;;;;;;4.68;3.03;;;17.40;87.20;;;;;;4939616;28;20108;-60
2023/08/02 06:48:12;;;;;;;4.07;2.70;;;17.30;87.60;;;;;;4939038;28;20284;-61
2023/08/02 06:50:38;;;;;;;2.95;2.63;;;17.30;87.60;;;;;;4938375;28;20298;-61
2023/08/02 06:53:05;;;;;;;3.33;2.60;;;17.30;87.80;;;;;;4940829;28;20484;-60
2023/08/02 06:55:31;;;;;;;6.10;2.67;;;17.30;88.00;;;;;;4939224;28;20047;-60
2023/08/02 06:57:56;;;;;;;3.00;2.42;;;17.30;88.00;;;;;;4937930;28;20039;-61
2023/08/02 07:00:22;;;;;;;3.72;2.75;;;17.30;88.10;;;;;;4938200;28;20344;-61
2023/08/02 07:02:47;;;;;;;2.65;2.30;;;17.40;88.30;;;;;;4939450;28;20427;-60
2023/08/02 07:05:13;;;;;;;3.83;2.83;;;17.40;88.40;;;;;;4939591;28;20546;-59
2023/08/02 07:07:39;;;;;;;2.50;2.30;;;17.40;88.50;;;;;;4938597;28;20844;-61
2023/08/02 07:10:04;;;;;;;3.60;2.60;;;17.40;88.50;;;;;;4940230;28;20035;-60
2023/08/02 07:12:30;;;;;;;4.85;2.53;;;17.40;88.70;;;;;;4939660;28;20040;-61
2023/08/02 07:14:55;;;;;;;3.97;2.97;;;17.50;88.90;;;;;;4938740;28;20047;-61
2023/08/02 07:17:21;;;;;;;3.67;2.60;;;17.50;89.00;;;;;;4938757;28;20047;-59
2023/08/02 07:19:48;;;;;;;4.35;2.45;;;17.50;88.80;;;;;;4940416;28;20036;-61
2023/08/02 07:22:17;;;;;;;3.33;2.58;;;17.60;89.00;;;;;;4940939;28;20039;-61
2023/08/02 07:24:45;;;;;;;4.72;2.80;;;17.60;89.00;;;;;;4938484;28;20411;-60
2023/08/02 07:27:11;;;;;;;5.82;2.53;;;17.60;89.10;;;;;;4938894;29;20054;-60
2023/08/02 07:29:36;;;;;;;2.70;2.45;;;17.60;89.00;;;;;;4939205;28;20075;-60
2023/08/02 07:32:02;;;;;;;2.97;2.67;;;17.60;89.10;;;;;;4939065;28;20038;-60
2023/08/02 07:34:28;;;;;;;3.05;2.22;;;17.60;89.30;;;;;;4937884;28;20558;-61
2023/08/02 07:36:53;;;;;;;2.65;2.42;;;17.70;89.50;;;;;;4938408;28;20027;-59
2023/08/02 07:39:19;;;;;;;2.47;2.28;;;17.70;89.60;;;;;;4938775;28;20062;-59
2023/08/02 07:41:44;;;;;;;3.25;2.65;;;17.70;89.70;;;;;;4938654;28;20028;-59
2023/08/02 07:44:10;;;;;;;2.63;2.30;;;17.70;89.70;;;;;;4939159;28;20031;-61
2023/08/02 07:46:36;;;;;;;2.75;2.45;;;17.90;89.70;;;;;;4938394;28;20599;-61
2023/08/02 07:49:01;;;;;;;2.42;2.15;;;17.80;89.30;;;;;;4938554;28;20050;-61
2023/08/02 07:51:27;;;;;;;3.35;2.20;;;17.80;89.30;;;;;;4938895;29;20040;-62
2023/08/02 07:53:52;;;;;;;2.70;2.10;;;17.80;89.30;;;;;;4939226;28;20047;-61
2023/08/02 07:56:19;;;;;;;2.42;2.22;;;17.80;89.10;;;;;;4937758;28;20039;-61
2023/08/02 07:58:44;;;;;;;2.45;2.20;;;17.80;89.30;;;;;;4937793;28;20067;-62
2023/08/02 08:01:10;;;;;;;3.78;2.22;;;17.80;89.20;;;;;;4939270;28;20125;-62
2023/08/02 08:03:37;;;;;;;3.30;2.20;;;17.80;89.30;;;;;;4939384;28;20039;-61
2023/08/02 08:06:28;;;;;;;2.92;2.20;;;17.80;89.20;;;;;;4940639;28;20036;-62
2023/08/02 08:08:54;;;;;;;3.75;2.22;;;17.90;90.00;;;;;;4936804;28;20143;-61
2023/08/02 08:11:20;;;;;;;6.75;4.40;;;17.90;89.10;;;;;;4940701;28;20187;-62
2023/08/02 08:13:45;;;;;;;3.78;2.60;;;17.90;89.10;;;;;;4939352;28;20061;-60
2023/08/02 08:16:11;;;;;;;2.83;2.05;;;17.90;89.20;;;;;;4940156;28;20023;-61
2023/08/02 08:18:36;;;;;;;3.53;2.38;;;17.80;89.20;;;;;;4939393;28;20042;-62
2023/08/02 08:21:03;;;;;;;3.35;2.20;;;17.80;89.20;;;;;;4941268;28;20452;-61
2023/08/02 08:23:30;;;;;;;6.22;1.80;;;17.80;89.20;;;;;;4938734;28;20039;-62
2023/08/02 08:25:55;;;;;;;3.25;2.17;;;17.80;89.30;;;;;;4941618;28;20032;-61
2023/08/02 08:28:21;;;;;;;3.50;2.30;;;17.80;89.60;;;;;;4942418;29;20039;-62
2023/08/02 08:30:47;;;;;;;5.63;2.20;;;17.80;89.70;;;;;;4942796;28;20487;-62
2023/08/02 08:33:13;;;;;;;4.50;2.20;;;17.80;89.80;;;;;;4942925;28;20031;-60
2023/08/02 08:35:38;;;;;;;5.80;2.70;;;17.90;90.00;;;;;;4941264;28;20047;-61
2023/08/02 08:38:04;;;;;;;3.58;2.45;;;17.80;90.00;;;;;;4942092;28;20031;-59
2023/08/02 08:40:29;;;;;;;3.28;2.20;;;17.80;90.00;;;;;;4942360;28;20043;-60
2023/08/02 08:42:56;;;;;;;6.05;2.33;;;17.80;90.10;;;;;;4942971;29;20114;-60
2023/08/02 08:45:26;;;;;;;5.28;2.30;;;17.80;90.10;;;;;;4942676;28;20408;-61
2023/08/02 08:47:52;;;;;;;3.00;2.42;;;17.80;90.50;;;;;;4941553;28;20310;-62
2023/08/02 08:50:21;;;;;;;4.63;2.20;;;17.80;90.00;;;;;;4943205;28;20043;-61
2023/08/02 08:52:48;;;;;;;2.63;2.17;;;17.90;90.50;;;;;;4942137;28;20046;-61
2023/08/02 08:55:17;;;;;;;5.47;2.22;;;17.90;90.10;;;;;;4942835;28;20042;-61
2023/08/02 08:57:45;;;;;;;5.25;2.58;;;17.90;90.20;;;;;;4943084;28;20042;-59
2023/08/02 09:00:13;;;;;;;4.80;2.55;;;17.90;90.00;;;;;;4942718;29;20384;-61
2023/08/02 09:02:39;;;;;;;4.00;2.50;;;18.00;90.10;;;;;;4942594;28;20099;-60
2023/08/02 09:05:06;;;;;;;3.55;2.30;;;18.00;90.20;;;;;;4942553;28;20126;-61
2023/08/02 09:07:32;;;;;;;4.43;2.72;;;18.00;90.20;;;;;;4942240;28;20503;-59
2023/08/02 09:09:57;;;;;;;8.70;2.83;;;18.10;90.60;;;;;;4942970;28;20063;-59
2023/08/02 09:12:24;;;;;;;4.13;2.60;;;18.20;90.20;;;;;;4943192;28;20043;-60
2023/08/02 09:15:04;;;;;;;8.73;2.50;;;18.20;90.10;;;;;;4942128;28;20077;-61
2023/08/02 09:17:51;;;;;;;5.80;2.45;;;18.20;90.20;;;;;;4943450;28;20114;-60
2023/08/02 09:20:19;;;;;;;5.22;2.60;;;18.30;90.10;;;;;;4942998;29;20035;-61
2023/08/02 09:22:45;;;;;;;5.45;2.42;;;18.30;90.00;;;;;;4943163;28;20118;-60
2023/08/02 09:25:27;;;;;;;6.18;2.47;;;18.40;89.70;;;;;;4943328;28;20134;-59
2023/08/02 09:27:55;;;;;;;3.63;2.55;;;18.50;90.30;;;;;;4942644;28;20094;-60
2023/08/02 09:30:23;;;;;;;3.17;2.30;;;18.50;90.00;;;;;;4942378;28;20094;-61
2023/08/02 09:33:02;;;;;;;3.17;2.03;;;18.50;90.00;;;;;;4941416;28;20565;-59
2023/08/02 09:35:30;;;;;;;2.53;2.17;;;18.60;90.00;;;;;;4942168;29;20463;-59
2023/08/02 09:37:56;;;;;;;2.25;2.03;;;18.70;90.10;;;;;;4940531;28;20137;-59
2023/08/02 09:40:35;;;;;;;4.15;2.17;;;18.80;90.00;;;;;;4941605;29;20114;-58
2023/08/02 09:43:01;;;;;;;4.47;2.33;;;18.90;89.80;;;;;;4940735;28;20043;-60
2023/08/02 09:45:32;;;;;;;2.72;2.08;;;19.00;89.30;;;;;;4941237;28;20066;-61
2023/08/02 09:47:58;;;;;;;2.78;2.10;;;19.10;89.20;;;;;;4942241;28;20119;-60
2023/08/02 09:50:24;;;;;;;4.35;1.98;;;19.20;89.00;;;;;;4941326;28;20396;-60
2023/08/02 09:52:49;;;;;;;3.20;2.00;;;19.30;89.00;;;;;;4941504;28;20043;-59
2023/08/02 09:55:15;;;;;;;2.30;2.10;;;19.50;88.70;;;;;;4940360;28;20047;-61
2023/08/02 09:57:44;;;;;;;2.05;1.92;;;19.50;88.50;;;;;;4941198;28;20410;-60
2023/08/02 10:00:10;;;;;;;2.40;2.15;;;19.60;88.40;;;;;;4941757;28;20042;-60
2023/08/02 10:02:36;;;;;;;2.22;2.03;;;19.60;88.60;;;;;;4940698;28;20939;-60
2023/08/02 10:05:06;;;;;;;2.80;1.90;;;19.70;88.10;;;;;;4942904;28;20503;-61
2023/08/02 10:07:38;;;;;;;2.28;2.08;;;19.90;88.10;;;;;;4941777;28;20496;-60
2023/08/02 10:10:06;;;;;;;3.35;1.70;;;20.00;87.50;;;;;;4940951;28;20039;-60
2023/08/02 10:12:35;;;;;;;2.38;1.88;;;20.10;86.80;;;;;;4943596;28;20115;-59
2023/08/02 10:15:02;;;;;;;1.63;1.52;;;20.20;85.90;;;;;;4940920;28;20043;-59
2023/08/02 10:17:29;;;;;;;2.67;2.20;;;20.30;85.90;;;;;;4940786;28;20095;-60
2023/08/02 10:19:57;;;;;;;2.08;1.90;;;20.30;85.90;;;;;;4942507;28;20380;-61
2023/08/02 10:22:24;;;;;;;3.35;2.13;;;20.40;85.70;;;;;;4940756;28;20073;-60
2023/08/02 10:24:50;;;;;;;2.38;1.73;;;20.50;85.50;;;;;;4940736;28;20062;-58
2023/08/02 10:27:17;;;;;;;2.00;1.85;;;20.50;85.30;;;;;;4941570;28;20093;-60
2023/08/02 10:29:43;;;;;;;2.83;2.15;;;20.60;85.50;;;;;;4940028;28;20035;-60
2023/08/02 10:32:12;;;;;;;1.95;1.58;;;20.70;85.20;;;;;;4941281;28;20122;-60
2023/08/02 10:34:37;;;;;;;3.53;1.90;;;20.80;84.80;;;;;;4939795;28;20094;-60
2023/08/02 10:37:03;;;;;;;3.25;2.17;;;20.80;84.60;;;;;;4941091;28;20499;-59
2023/08/02 10:39:47;;;;;;;2.58;2.10;;;20.90;84.30;;;;;;4940386;28;20046;-61
2023/08/02 10:42:14;;;;;;;3.70;1.98;;;21.00;83.30;;;;;;4941133;29;20114;-59
2023/08/02 10:44:55;;;;;;;3.00;2.13;;;21.10;83.60;;;;;;4938957;28;20052;-59
2023/08/02 10:47:33;;;;;;;3.25;2.15;;;21.10;83.40;;;;;;4940074;28;20047;-60
2023/08/02 10:50:00;;;;;;;2.33;2.05;;;21.20;83.10;;;;;;4939876;28;20036;-61
2023/08/02 10:52:33;;;;;;;2.30;2.10;;;21.30;83.60;;;;;;4940233;28;20061;-60
2023/08/02 10:55:06;;;;;;;2.72;2.30;;;21.40;83.30;;;;;;4942538;28;20047;-60
2023/08/02 10:57:31;;;;;;;2.40;2.20;;;21.50;83.60;;;;;;4940170;28;20530;-60
2023/08/02 10:59:57;;;;;;;3.22;2.15;;;21.60;83.90;;;;;;4940915;28;20039;-59
2023/08/02 11:02:25;;;;;;;1.77;1.67;;;21.80;83.50;;;;;;4940162;28;20078;-60
2023/08/02 11:04:52;;;;;;;1.90;1.70;;;21.90;83.60;;;;;;4940473;28;20059;-61
2023/08/02 11:07:21;;;;;;;2.63;2.10;;;22.00;83.90;;;;;;4940072;28;20043;-60
2023/08/02 11:09:53;;;;;;;2.13;1.80;;;22.10;83.60;;;;;;4941101;28;20479;-59
2023/08/02 11:12:20;;;;;;;4.28;1.80;;;22.30;82.80;;;;;;4942660;28;20046;-59
2023/08/02 11:14:52;;;;;;;3.55;2.00;;;22.50;82.60;;;;;;4940245;28;20471;-60
2023/08/02 11:17:22;;;;;;;2.40;2.20;;;22.70;80.50;;;;;;4941118;28;20404;-60
2023/08/02 11:19:50;;;;;;;3.30;2.08;;;22.80;80.20;;;;;;4941595;28;20066;-61
2023/08/02 11:22:16;;;;;;;2.50;2.30;;;23.00;80.40;;;;;;4941424;29;20486;-61
2023/08/02 11:24:46;;;;;;;2.35;2.15;;;23.10;79.80;;;;;;4940566;28;20500;-61
2023/08/02 11:27:20;;;;;;;2.20;2.00;;;23.20;78.90;;;;;;4940945;28;20134;-61
2023/08/02 11:29:59;;;;;;;2.50;2.17;;;23.40;76.50;;;;;;4941652;28;20578;-61
2023/08/02 11:32:25;;;;;;;2.92;2.30;;;23.50;75.80;;;;;;4940691;28;20664;-60
2023/08/02 11:34:51;;;;;;;2.22;2.00;;;23.60;77.00;;;;;;4939719;28;20039;-60
2023/08/02 11:37:18;;;;;;;2.50;2.30;;;23.70;76.70;;;;;;4938990;28;20039;-61
2023/08/02 11:39:55;;;;;;;2.70;2.38;;;23.80;75.90;;;;;;4939934;28;20043;-60
2023/08/02 11:42:21;;;;;;;2.33;2.13;;;23.90;74.40;;;;;;4941531;28;20054;-62
2023/08/02 11:44:46;;;;;;;2.65;2.45;;;24.00;74.60;;;;;;4940754;28;20039;-62
2023/08/02 11:47:12;;;;;;;2.38;2.03;;;24.00;74.10;;;;;;4939124;28;20118;-61
2023/08/02 11:49:57;;;;;;;2.55;2.00;;;24.10;74.00;;;;;;4939484;28;20511;-61
2023/08/02 11:52:28;;;;;;;2.50;2.30;;;24.10;72.30;;;;;;4940383;28;20058;-61
2023/08/02 11:54:54;;;;;;;3.17;2.22;;;24.20;72.30;;;;;;4939750;28;20047;-61
2023/08/02 11:57:24;;;;;;;2.50;2.25;;;24.30;73.10;;;;;;4939078;28;20393;-62
2023/08/02 11:59:51;;;;;;;2.17;2.08;;;24.30;71.90;;;;;;4939957;28;20404;-59
2023/08/02 12:02:21;;;;;;;2.78;2.33;;;24.40;71.60;;;;;;4943307;28;20047;-60
2023/08/02 12:04:47;;;;;;;2.28;2.08;;;24.40;70.70;;;;;;4942571;28;20094;-61
2023/08/02 12:07:22;;;;;;;2.90;2.60;;;24.50;71.40;;;;;;4944014;28;20039;-62
2023/08/02 12:09:48;;;;;;;2.60;1.88;;;24.60;71.50;;;;;;4943863;29;20130;-61
2023/08/02 12:12:14;;;;;;;2.75;2.40;;;24.60;70.90;;;;;;4945268;28;20138;-61
2023/08/02 12:14:39;;;;;;;2.70;2.03;;;24.70;70.60;;;;;;4943059;28;20031;-62
2023/08/02 12:17:05;;;;;;;2.65;2.30;;;24.70;69.90;;;;;;4943381;28;20478;-62
2023/08/02 12:19:38;;;;;;;2.30;2.10;;;24.80;70.90;;;;;;4944229;28;20427;-61
2023/08/02 12:22:04;;;;;;;2.33;2.13;;;24.90;69.70;;;;;;4944227;29;20031;-61
2023/08/02 12:24:29;;;;;;;3.70;2.03;;;25.00;70.00;;;;;;4943310;28;20091;-62
2023/08/02 12:26:55;;;;;;;2.40;2.20;;;25.00;69.50;;;;;;4942508;28;20047;-61
2023/08/02 12:29:24;;;;;;;3.97;2.08;;;25.10;68.90;;;;;;4942565;29;20066;-61
2023/08/02 12:31:53;;;;;;;2.53;2.20;;;25.20;69.40;;;;;;4943072;28;20036;-62
2023/08/02 12:34:19;;;;;;;2.90;1.80;;;25.30;70.40;;;;;;4942258;28;20407;-61
2023/08/02 12:36:47;;;;;;;2.40;2.20;;;25.30;70.30;;;;;;4941799;28;20043;-61
2023/08/02 12:39:13;;;;;;;2.50;2.30;;;25.40;70.00;;;;;;4942394;28;20028;-62
2023/08/02 12:41:39;;;;;;;4.35;2.13;;;25.50;70.60;;;;;;4942609;29;20031;-62
2023/08/02 12:44:04;;;;;;;2.45;2.25;;;25.60;69.90;;;;;;4942938;28;20039;-61